createdAt,value
2019-02-20T00:01:02.516Z,10.37
2019-02-20T00:03:31.984Z,9.20
2019-02-20T00:06:01.739Z,13.47
2019-02-20T00:08:32.795Z,8.90
2019-02-20T00:11:02.345Z,9.53
2019-02-20T00:13:32.159Z,10.50
2019-02-20T00:16:01.634Z,9.97
2019-02-20T00:18:33.478Z,12.13
2019-02-20T00:21:05.079Z,11.13
2019-02-20T00:23:39.352Z,10.53
2019-02-20T00:26:09.325Z,10.03
2019-02-20T00:28:39.055Z,9.33
2019-02-20T00:31:09.260Z,10.40
2019-02-20T00:33:39.254Z,9.57
2019-02-20T00:36:08.469Z,9.47
2019-02-20T00:38:40.469Z,9.07
2019-02-20T00:41:10.809Z,8.13
2019-02-20T00:43:43.216Z,8.70
2019-02-20T00:46:33.903Z,9.37
2019-02-20T00:49:09.221Z,10.33
2019-02-20T00:52:07.384Z,10.30
2019-02-20T00:54:36.892Z,10.50
2019-02-20T00:57:06.899Z,8.87
2019-02-20T00:59:38.878Z,7.50
2019-02-20T01:02:09.334Z,7.50
2019-02-20T01:04:38.530Z,8.67
2019-02-20T01:07:08.760Z,8.77
2019-02-20T01:09:38.703Z,8.60
2019-02-20T01:12:12.040Z,9.00
2019-02-20T01:14:44.556Z,9.60
2019-02-20T01:17:16.605Z,8.90
2019-02-20T01:19:46.356Z,8.03
2019-02-20T01:22:15.544Z,9.03
2019-02-20T01:24:47.594Z,9.23
2019-02-20T01:27:18.586Z,8.77
2019-02-20T01:29:49.075Z,9.63
2019-02-20T01:32:23.621Z,8.73
2019-02-20T01:34:54.203Z,8.67
2019-02-20T01:37:28.369Z,8.73
2019-02-20T01:39:58.088Z,9.10
2019-02-20T01:42:27.846Z,9.33
2019-02-20T01:44:57.437Z,8.47
2019-02-20T01:47:27.402Z,8.03
2019-02-20T01:49:58.830Z,8.53
2019-02-20T01:52:28.350Z,9.73
2019-02-20T01:54:58.057Z,10.07
2019-02-20T01:57:30.301Z,11.33
2019-02-20T01:59:59.791Z,10.83
2019-02-20T02:02:29.919Z,10.23
2019-02-20T02:05:01.094Z,9.43
2019-02-20T02:07:30.795Z,9.13
2019-02-20T02:10:01.057Z,9.00
2019-02-20T02:12:33.090Z,8.73
2019-02-20T02:15:04.785Z,8.53
2019-02-20T02:17:34.749Z,8.63
2019-02-20T02:20:05.625Z,9.17
2019-02-20T02:22:35.085Z,9.40
2019-02-20T02:25:05.304Z,9.20
2019-02-20T02:27:34.755Z,10.27
2019-02-20T02:30:09.408Z,10.00
2019-02-20T02:32:41.134Z,8.57
2019-02-20T02:35:11.101Z,8.87
2019-02-20T02:37:41.676Z,8.70
2019-02-20T02:40:11.098Z,8.30
2019-02-20T02:42:40.559Z,8.47
2019-02-20T02:45:12.041Z,9.37
2019-02-20T02:47:41.255Z,8.63
2019-02-20T02:50:10.782Z,7.10
2019-02-20T02:52:42.941Z,8.00
2019-02-20T02:55:14.431Z,8.33
2019-02-20T02:57:43.684Z,9.13
2019-02-20T03:00:13.236Z,8.83
2019-02-20T03:02:42.433Z,9.80
2019-02-20T03:05:11.609Z,9.47
2019-02-20T03:07:41.301Z,9.80
2019-02-20T03:10:12.562Z,10.13
2019-02-20T03:12:44.171Z,9.23
2019-02-20T03:15:13.887Z,9.80
2019-02-20T03:17:43.328Z,9.63
2019-02-20T03:20:16.818Z,10.07
2019-02-20T03:22:49.075Z,8.90
2019-02-20T03:25:21.185Z,9.47
2019-02-20T03:27:55.728Z,8.77
2019-02-20T03:30:25.683Z,8.63
2019-02-20T03:32:54.886Z,8.27
2019-02-20T03:35:26.617Z,8.30
2019-02-20T03:37:57.250Z,8.23
2019-02-20T03:40:28.275Z,8.87
2019-02-20T03:43:01.683Z,8.77
2019-02-20T03:45:31.917Z,8.27
2019-02-20T03:48:06.116Z,8.40
2019-02-20T03:50:35.583Z,7.93
2019-02-20T03:53:04.795Z,8.33
2019-02-20T03:55:34.504Z,8.37
2019-02-20T03:58:07.887Z,8.43
2019-02-20T04:00:38.557Z,8.07
2019-02-20T04:03:09.605Z,9.20
2019-02-20T04:05:41.128Z,8.73
2019-02-20T04:08:10.587Z,9.37
2019-02-20T04:10:40.047Z,9.07
2019-02-20T04:13:10.321Z,9.47
2019-02-20T04:15:42.021Z,8.70
2019-02-20T04:18:11.738Z,9.37
2019-02-20T04:20:41.478Z,9.37
2019-02-20T04:23:10.678Z,9.70
2019-02-20T04:25:46.820Z,11.30
2019-02-20T04:28:16.284Z,10.43
2019-02-20T04:30:46.908Z,10.97
2019-02-20T04:33:18.149Z,11.03
2019-02-20T04:35:47.337Z,10.23
2019-02-20T04:38:16.784Z,11.13
2019-02-20T04:40:48.065Z,12.90
2019-02-20T04:43:18.810Z,14.07
2019-02-20T04:45:51.361Z,10.43
2019-02-20T04:48:23.838Z,9.97
2019-02-20T04:50:54.123Z,9.43
2019-02-20T04:53:24.470Z,10.13
2019-02-20T04:55:55.972Z,9.67
2019-02-20T04:58:28.492Z,14.90
2019-02-20T05:00:58.242Z,13.53
2019-02-20T05:03:27.401Z,27.13
2019-02-20T05:05:57.407Z,25.27
2019-02-20T05:08:27.687Z,16.57
2019-02-20T05:10:58.894Z,15.00
2019-02-20T05:13:28.083Z,11.43
2019-02-20T05:15:57.815Z,10.50
2019-02-20T05:18:27.379Z,10.30
2019-02-20T05:20:58.866Z,12.63
2019-02-20T05:23:29.598Z,15.50
2019-02-20T05:25:59.354Z,18.50
2019-02-20T05:28:30.087Z,15.53
2019-02-20T05:31:00.294Z,15.07
2019-02-20T05:33:29.758Z,20.60
2019-02-20T05:36:00.494Z,14.93
2019-02-20T05:38:30.699Z,13.33
2019-02-20T05:41:01.104Z,14.10
2019-02-20T05:43:30.292Z,15.77
2019-02-20T05:46:00.545Z,15.13
2019-02-20T05:48:32.626Z,16.50
2019-02-20T05:51:02.356Z,13.40
2019-02-20T05:53:34.410Z,13.17
2019-02-20T05:56:08.442Z,13.50
2019-02-20T05:58:39.374Z,12.93
2019-02-20T06:01:10.315Z,14.30
2019-02-20T06:03:41.251Z,14.87
2019-02-20T06:06:11.060Z,14.43
2019-02-20T06:08:43.732Z,15.03
2019-02-20T06:11:15.569Z,14.30
2019-02-20T06:13:45.424Z,14.50
2019-02-20T06:16:14.896Z,14.67
2019-02-20T06:18:45.291Z,13.87
2019-02-20T06:21:16.474Z,14.50
2019-02-20T06:23:47.804Z,14.93
2019-02-20T06:26:20.308Z,15.23
2019-02-20T06:28:49.810Z,15.13
2019-02-20T06:31:18.980Z,14.37
2019-02-20T06:33:48.890Z,14.93
2019-02-20T06:36:18.605Z,15.47
2019-02-20T06:38:48.279Z,15.97
2019-02-20T06:41:19.230Z,17.87
2019-02-20T06:43:51.034Z,19.00
2019-02-20T06:46:20.918Z,18.87
2019-02-20T06:48:50.732Z,16.33
2019-02-20T06:51:21.998Z,14.80
2019-02-20T06:53:51.276Z,15.00
2019-02-20T06:56:26.965Z,15.37
2019-02-20T06:58:57.472Z,14.77
2019-02-20T07:01:26.675Z,16.00
2019-02-20T07:03:56.980Z,16.60
2019-02-20T07:06:54.600Z,15.13
2019-02-20T07:10:01.286Z,16.73
2019-02-20T07:12:55.910Z,15.80
2019-02-20T07:16:02.186Z,16.43
2019-02-20T07:18:50.136Z,15.13
2019-02-20T07:22:03.216Z,17.70
2019-02-20T07:25:05.035Z,16.83
2019-02-20T07:28:21.535Z,16.40
2019-02-20T07:30:52.722Z,16.13
2019-02-20T07:33:24.179Z,16.40
2019-02-20T07:35:57.639Z,15.77
2019-02-20T07:38:28.163Z,18.47
2019-02-20T07:41:00.975Z,15.53
2019-02-20T07:43:34.858Z,17.77
2019-02-20T07:46:19.917Z,17.10
2019-02-20T07:48:50.709Z,16.80
2019-02-20T07:51:41.955Z,18.20
2019-02-20T07:54:11.972Z,18.43
2019-02-20T07:56:42.012Z,18.63
2019-02-20T07:59:12.181Z,19.40
2019-02-20T08:01:45.324Z,18.70
2019-02-20T08:04:15.971Z,20.63
2019-02-20T08:06:49.755Z,19.70
2019-02-20T08:09:28.145Z,19.13
2019-02-20T08:11:57.609Z,19.43
2019-02-20T08:14:27.095Z,19.80
2019-02-20T08:16:57.133Z,19.03
2019-02-20T08:19:28.027Z,17.63
2019-02-20T08:21:57.247Z,18.40
2019-02-20T08:24:26.825Z,16.50
2019-02-20T08:26:56.771Z,17.33
2019-02-20T08:29:26.010Z,17.73
2019-02-20T08:31:56.846Z,16.33
2019-02-20T08:34:26.038Z,17.07
2019-02-20T08:36:55.198Z,16.97
2019-02-20T08:39:24.395Z,17.60
2019-02-20T08:41:53.568Z,17.83
2019-02-20T08:44:24.113Z,18.10
2019-02-20T08:46:54.867Z,18.37
2019-02-20T08:49:24.369Z,18.07
2019-02-20T08:51:54.987Z,19.00
2019-02-20T08:54:25.011Z,19.13
2019-02-20T08:56:58.090Z,20.17
2019-02-20T08:59:28.040Z,18.70
2019-02-20T09:01:57.407Z,19.40
2019-02-20T09:04:27.202Z,19.90
2019-02-20T09:06:58.016Z,18.80
2019-02-20T09:09:27.229Z,19.03
2019-02-20T09:12:17.462Z,19.13
2019-02-20T09:14:46.913Z,18.70
2019-02-20T09:17:16.573Z,18.63
2019-02-20T09:19:46.752Z,19.43
2019-02-20T09:22:16.017Z,19.13
2019-02-20T09:24:46.284Z,18.37
2019-02-20T09:27:15.748Z,17.27
2019-02-20T09:29:48.290Z,17.43
2019-02-20T09:32:21.131Z,19.43
2019-02-20T09:34:51.676Z,23.23
2019-02-20T09:37:20.833Z,16.10
2019-02-20T09:39:50.303Z,16.40
2019-02-20T09:42:21.505Z,16.43
2019-02-20T09:44:56.749Z,18.87
2019-02-20T09:47:26.859Z,18.10
2019-02-20T09:49:56.805Z,16.67
2019-02-20T09:52:26.168Z,17.13
2019-02-20T09:55:00.788Z,15.37
2019-02-20T09:57:30.042Z,16.30
2019-02-20T09:59:59.800Z,15.93
2019-02-20T10:02:29.568Z,15.83
2019-02-20T10:04:58.745Z,15.73
2019-02-20T10:07:35.766Z,15.50
2019-02-20T10:10:05.254Z,15.63
2019-02-20T10:12:34.752Z,15.83
2019-02-20T10:15:05.756Z,15.50
2019-02-20T10:17:36.274Z,14.77
2019-02-20T10:20:05.949Z,15.40
2019-02-20T10:22:35.176Z,15.23
2019-02-20T10:25:04.386Z,15.23
2019-02-20T10:27:33.894Z,14.37
2019-02-20T10:30:03.342Z,13.37
2019-02-20T10:32:32.566Z,14.07
2019-02-20T10:35:02.077Z,14.90
2019-02-20T10:37:31.334Z,14.37
2019-02-20T10:40:00.604Z,14.13
2019-02-20T10:42:51.246Z,12.73
2019-02-20T10:45:20.947Z,13.93
2019-02-20T10:47:51.777Z,12.70
2019-02-20T10:50:23.688Z,13.73
2019-02-20T10:52:55.692Z,13.13
2019-02-20T10:55:27.258Z,14.53
2019-02-20T10:57:56.451Z,13.73
2019-02-20T11:00:28.709Z,14.23
2019-02-20T11:02:58.355Z,14.27
2019-02-20T11:05:27.648Z,13.53
2019-02-20T11:07:58.650Z,12.13
2019-02-20T11:10:27.813Z,12.83
2019-02-20T11:12:57.287Z,16.23
2019-02-20T11:15:27.050Z,20.47
2019-02-20T11:17:56.510Z,15.93
2019-02-20T11:20:26.298Z,14.37
2019-02-20T11:22:57.580Z,14.27
2019-02-20T11:25:28.579Z,14.23
2019-02-20T11:28:00.496Z,12.47
2019-02-20T11:30:30.294Z,14.70
2019-02-20T11:33:00.852Z,15.70
2019-02-20T11:35:30.066Z,15.23
2019-02-20T11:37:59.601Z,17.40
2019-02-20T11:40:30.099Z,16.70
2019-02-20T11:42:59.263Z,15.93
2019-02-20T11:45:28.463Z,14.50
2019-02-20T11:47:59.805Z,14.20
2019-02-20T11:50:30.070Z,15.37
2019-02-20T11:53:00.316Z,15.37
2019-02-20T11:55:31.522Z,16.77
2019-02-20T11:58:01.493Z,15.63
2019-02-20T12:00:31.016Z,14.97
2019-02-20T12:03:00.247Z,14.73
2019-02-20T12:05:29.598Z,15.57
2019-02-20T12:07:58.841Z,15.40
2019-02-20T12:10:29.814Z,15.53
2019-02-20T12:13:00.045Z,15.90
2019-02-20T12:15:31.451Z,15.57
2019-02-20T12:18:02.143Z,15.63
2019-02-20T12:20:31.660Z,15.27
2019-02-20T12:23:01.654Z,15.20
2019-02-20T12:25:31.176Z,15.23
2019-02-20T12:28:00.388Z,14.80
2019-02-20T12:30:29.589Z,15.60
2019-02-20T12:32:59.644Z,15.93
2019-02-20T12:35:28.811Z,15.00
2019-02-20T12:37:58.014Z,17.87
2019-02-20T12:40:27.193Z,18.97
2019-02-20T12:42:56.394Z,19.63
2019-02-20T12:45:25.573Z,18.70
2019-02-20T12:47:55.107Z,18.60
2019-02-20T12:50:24.831Z,18.07
2019-02-20T12:52:54.069Z,17.30
2019-02-20T12:55:24.059Z,16.40
2019-02-20T12:57:54.790Z,15.40
2019-02-20T13:00:24.225Z,15.60
2019-02-20T13:02:56.396Z,16.67
2019-02-20T13:05:26.623Z,16.33
2019-02-20T13:07:56.705Z,16.03
2019-02-20T13:10:26.987Z,15.47
2019-02-20T13:12:56.672Z,16.67
2019-02-20T13:15:27.308Z,15.57
2019-02-20T13:18:01.554Z,14.97
2019-02-20T13:20:35.150Z,16.27
2019-02-20T13:23:06.081Z,16.30
2019-02-20T13:25:35.574Z,16.10
2019-02-20T13:28:06.194Z,14.83
2019-02-20T13:30:40.935Z,14.90
2019-02-20T13:33:11.139Z,15.03
2019-02-20T13:35:41.449Z,15.93
2019-02-20T13:38:10.884Z,14.73
2019-02-20T13:40:40.451Z,15.57
2019-02-20T13:43:10.410Z,14.67
2019-02-20T13:45:39.873Z,13.93
2019-02-20T13:48:11.391Z,14.33
2019-02-20T13:50:43.761Z,15.27
2019-02-20T13:53:15.639Z,15.40
2019-02-20T13:55:47.992Z,14.53
2019-02-20T13:58:19.724Z,14.13
2019-02-20T14:00:49.341Z,15.57
2019-02-20T14:03:18.787Z,15.03
2019-02-20T14:05:51.645Z,16.10
2019-02-20T14:08:21.962Z,17.00
2019-02-20T14:10:51.540Z,17.70
2019-02-20T14:13:21.490Z,17.87
2019-02-20T14:15:53.056Z,16.20
2019-02-20T14:18:23.290Z,16.53
2019-02-20T14:20:56.746Z,16.20
2019-02-20T14:23:29.704Z,18.83
2019-02-20T14:26:08.255Z,15.93
2019-02-20T14:28:43.466Z,14.67
2019-02-20T14:31:13.239Z,13.93
2019-02-20T14:33:45.150Z,15.27
2019-02-20T14:36:15.117Z,15.73
2019-02-20T14:38:46.920Z,15.70
2019-02-20T14:41:16.517Z,16.30
2019-02-20T14:43:46.323Z,15.13
2019-02-20T14:46:15.633Z,14.13
2019-02-20T14:48:44.850Z,14.87
2019-02-20T14:51:14.929Z,16.50
2019-02-20T14:53:44.416Z,13.77
2019-02-20T14:56:13.611Z,16.70
2019-02-20T14:58:44.431Z,14.63
2019-02-20T15:01:13.797Z,13.53
2019-02-20T15:03:43.832Z,13.40
2019-02-20T15:06:13.831Z,13.90
2019-02-20T15:08:47.324Z,14.40
2019-02-20T15:11:20.431Z,12.17
2019-02-20T15:13:51.085Z,12.53
2019-02-20T15:16:20.806Z,12.17
2019-02-20T15:18:50.035Z,12.23
2019-02-20T15:21:21.022Z,11.73
2019-02-20T15:23:51.493Z,11.97
2019-02-20T15:26:24.715Z,12.10
2019-02-20T15:28:55.176Z,11.50
2019-02-20T15:31:33.516Z,12.73
2019-02-20T15:33:56.815Z,10.90
2019-02-20T15:36:26.710Z,11.33
2019-02-20T15:39:02.639Z,11.03
2019-02-20T15:41:31.836Z,11.97
2019-02-20T15:44:02.769Z,12.20
2019-02-20T15:46:32.918Z,10.10
2019-02-20T15:49:03.748Z,10.50
2019-02-20T15:51:33.204Z,11.30
2019-02-20T15:54:02.628Z,10.90
2019-02-20T15:56:31.806Z,10.40
2019-02-20T15:59:01.372Z,10.97
2019-02-20T16:01:31.577Z,10.93
2019-02-20T16:04:01.581Z,11.00
2019-02-20T16:06:32.053Z,9.70
2019-02-20T16:09:01.479Z,10.33
2019-02-20T16:11:32.700Z,10.13
2019-02-20T16:14:03.657Z,10.10
2019-02-20T16:16:32.859Z,10.03
2019-02-20T16:19:02.427Z,10.73
2019-02-20T16:21:31.762Z,10.40
2019-02-20T16:24:21.536Z,10.27
2019-02-20T16:26:52.050Z,10.60
2019-02-20T16:29:21.875Z,10.70
2019-02-20T16:31:52.122Z,10.40
2019-02-20T16:34:21.338Z,10.03
2019-02-20T16:37:00.897Z,10.57
2019-02-20T16:39:30.277Z,11.00
2019-02-20T16:42:00.119Z,9.90
2019-02-20T16:44:29.621Z,9.63
2019-02-20T16:46:59.275Z,10.67
2019-02-20T16:49:29.145Z,10.47
2019-02-20T16:52:01.475Z,10.00
2019-02-20T16:54:31.527Z,9.27
2019-02-20T16:57:03.232Z,10.00
2019-02-20T16:59:32.615Z,9.77
2019-02-20T17:02:06.612Z,8.97
2019-02-20T17:04:36.876Z,16.67
2019-02-20T17:07:08.329Z,12.97
2019-02-20T17:09:39.394Z,12.80
2019-02-20T17:12:09.802Z,11.60
2019-02-20T17:14:39.351Z,11.27
2019-02-20T17:17:08.893Z,12.23
2019-02-20T17:19:38.456Z,12.73
2019-02-20T17:22:07.626Z,13.07
2019-02-20T17:24:37.095Z,12.50
2019-02-20T17:27:09.381Z,12.40
2019-02-20T17:29:38.849Z,10.10
2019-02-20T17:32:08.055Z,13.80
2019-02-20T17:34:37.232Z,15.97
2019-02-20T17:37:06.445Z,13.20
2019-02-20T17:39:36.087Z,15.10
2019-02-20T17:42:06.431Z,19.93
2019-02-20T17:44:36.093Z,33.93
2019-02-20T17:47:05.299Z,31.67
2019-02-20T17:49:36.554Z,25.20
2019-02-20T17:52:06.100Z,29.23
2019-02-20T17:54:35.300Z,56.30
2019-02-20T17:57:04.457Z,26.40
2019-02-20T17:59:36.824Z,31.70
2019-02-20T18:02:06.108Z,21.87
2019-02-20T18:04:41.159Z,14.50
2019-02-20T18:07:11.001Z,11.63
2019-02-20T18:09:40.806Z,10.93
2019-02-20T18:12:10.273Z,11.23
2019-02-20T18:14:40.083Z,17.80
2019-02-20T18:17:09.538Z,16.37
2019-02-20T18:19:38.834Z,14.37
2019-02-20T18:22:08.042Z,15.90
2019-02-20T18:24:38.651Z,13.37
2019-02-20T18:27:07.841Z,14.23
2019-02-20T18:29:37.045Z,14.20
2019-02-20T18:32:06.292Z,15.10
2019-02-20T18:34:35.944Z,15.30
2019-02-20T18:37:05.126Z,14.63
2019-02-20T18:39:34.326Z,13.33
2019-02-20T18:42:09.051Z,14.13
2019-02-20T18:44:38.613Z,13.53
2019-02-20T18:47:10.901Z,14.97
2019-02-20T18:49:40.165Z,17.13
2019-02-20T18:52:11.016Z,16.77
2019-02-20T18:54:42.223Z,15.30
2019-02-20T18:57:13.502Z,13.53
2019-02-20T19:00:05.682Z,13.50
2019-02-20T19:02:34.968Z,13.90
2019-02-20T19:05:04.326Z,12.93
2019-02-20T19:07:34.215Z,13.13
2019-02-20T19:10:03.514Z,12.30
2019-02-20T19:13:08.143Z,12.53
2019-02-20T19:16:03.167Z,12.27
2019-02-20T19:19:02.500Z,11.80
2019-02-20T19:21:40.775Z,12.60
2019-02-20T19:24:53.272Z,12.43
2019-02-20T19:28:12.358Z,14.90
2019-02-20T19:31:19.663Z,15.07
2019-02-20T19:34:14.218Z,19.17
2019-02-20T19:37:03.397Z,15.20
2019-02-20T19:40:20.803Z,15.57
2019-02-20T19:43:31.881Z,14.67
2019-02-20T19:46:36.296Z,13.93
2019-02-20T19:49:43.910Z,14.00
2019-02-20T19:52:56.580Z,13.50
2019-02-20T19:56:09.920Z,13.33
2019-02-20T19:58:57.788Z,13.83
2019-02-20T20:02:05.139Z,15.00
2019-02-20T20:05:16.457Z,16.87
2019-02-20T20:08:30.444Z,13.60
2019-02-20T20:11:33.529Z,23.33
2019-02-20T20:14:47.549Z,38.40
2019-02-20T20:17:46.538Z,21.03
2019-02-20T20:20:46.600Z,17.63
2019-02-20T20:23:58.481Z,19.47
2019-02-20T20:27:22.156Z,21.57
2019-02-20T20:30:35.000Z,23.17
2019-02-20T20:33:47.481Z,23.43
2019-02-20T20:36:39.282Z,18.27
2019-02-20T20:39:31.223Z,17.30
2019-02-20T20:42:51.793Z,16.93
2019-02-20T20:46:01.541Z,15.17
2019-02-20T20:49:09.671Z,14.50
2019-02-20T20:52:25.578Z,15.30
2019-02-20T20:55:44.869Z,12.70
2019-02-20T20:58:45.698Z,14.43
2019-02-20T21:01:46.530Z,15.90
2019-02-20T21:04:50.491Z,13.87
2019-02-20T21:08:01.226Z,15.57
2019-02-20T21:11:07.412Z,14.93
2019-02-20T21:14:07.008Z,13.77
2019-02-20T21:17:10.691Z,15.53
2019-02-20T21:20:07.059Z,13.20
2019-02-20T21:23:33.277Z,16.53
2019-02-20T21:26:55.057Z,18.53
2019-02-20T21:29:58.331Z,24.70
2019-02-20T21:33:17.347Z,22.37
2019-02-20T21:36:02.531Z,21.53
2019-02-20T21:39:19.383Z,18.47
2019-02-20T21:42:25.133Z,17.67
2019-02-20T21:45:35.102Z,17.97
2019-02-20T21:48:39.596Z,19.47
2019-02-20T21:51:51.155Z,21.07
2019-02-20T21:54:54.491Z,22.53
2019-02-20T21:58:02.088Z,27.50
2019-02-20T22:00:43.824Z,20.27
2019-02-20T22:03:33.623Z,22.83
2019-02-20T22:06:37.195Z,18.97
2019-02-20T22:09:34.443Z,16.77
2019-02-20T22:12:39.187Z,15.03
2019-02-20T22:16:04.666Z,16.67
2019-02-20T22:19:00.483Z,15.33
2019-02-20T22:21:54.521Z,15.37
2019-02-20T22:24:57.150Z,16.30
2019-02-20T22:28:21.495Z,16.77
2019-02-20T22:31:21.434Z,17.57
2019-02-20T22:34:56.864Z,16.80
2019-02-20T22:38:08.689Z,18.10
2019-02-20T22:41:10.251Z,15.77
2019-02-20T22:44:18.298Z,16.27
2019-02-20T22:47:20.447Z,17.27
2019-02-20T22:50:27.501Z,17.47
2019-02-20T22:53:03.435Z,17.90
2019-02-20T22:56:40.315Z,16.17
2019-02-20T22:59:38.450Z,19.73
2019-02-20T23:02:39.170Z,25.00
2019-02-20T23:05:54.288Z,25.90
2019-02-20T23:08:36.809Z,21.27
2019-02-20T23:11:56.475Z,18.87
2019-02-20T23:14:53.266Z,18.80
2019-02-20T23:17:23.696Z,16.20
2019-02-20T23:19:53.130Z,16.90
2019-02-20T23:22:25.420Z,18.60
2019-02-20T23:24:55.123Z,17.00
2019-02-20T23:27:26.318Z,17.53
2019-02-20T23:29:55.428Z,16.00
2019-02-20T23:32:25.837Z,16.00
2019-02-20T23:34:56.155Z,14.73
2019-02-20T23:37:26.336Z,15.50
2019-02-20T23:39:56.866Z,17.03
2019-02-20T23:42:26.679Z,16.57
2019-02-20T23:44:56.335Z,16.63
2019-02-20T23:47:26.308Z,16.03
2019-02-20T23:49:56.500Z,16.33
2019-02-20T23:52:26.425Z,15.40
2019-02-20T23:54:56.391Z,14.40
2019-02-20T23:57:26.622Z,14.60
